sensor_id;sensor_type;location;lat;lon;timestamp;pressure;altitude;pressure_sealevel;temperature;humidity
55763;BME280;42162;51.958;5.426;2024-02-14T00:00:12;101329.72;;;7.64;93.66
55763;BME280;42162;51.958;5.426;2024-02-14T00:02:46;101321.94;;;7.65;94.08
55763;BME280;42162;51.958;5.426;2024-02-14T00:05:16;101327.13;;;7.67;93.80
55763;BME280;42162;51.958;5.426;2024-02-14T00:07:44;101320.22;;;7.67;94.24
55763;BME280;42162;51.958;5.426;2024-02-14T00:10:14;101319.34;;;7.68;94.13
55763;BME280;42162;51.958;5.426;2024-02-14T00:12:42;101321.06;;;7.69;94.44
55763;BME280;42162;51.958;5.426;2024-02-14T00:15:09;101312.47;;;7.69;94.33
55763;BME280;42162;51.958;5.426;2024-02-14T00:17:36;101310.72;;;7.69;94.60
55763;BME280;42162;51.958;5.426;2024-02-14T00:20:04;101308.16;;;7.69;94.77
55763;BME280;42162;51.958;5.426;2024-02-14T00:22:44;101293.50;;;7.70;94.84
55763;BME280;42162;51.958;5.426;2024-02-14T00:25:11;101295.19;;;7.71;94.56
55763;BME280;42162;51.958;5.426;2024-02-14T00:27:45;101302.09;;;7.74;94.93
55763;BME280;42162;51.958;5.426;2024-02-14T00:30:13;101298.63;;;7.76;95.02
55763;BME280;42162;51.958;5.426;2024-02-14T00:33:00;101299.47;;;7.77;94.98
55763;BME280;42162;51.958;5.426;2024-02-14T00:35:28;101305.53;;;7.80;94.98
55763;BME280;42162;51.958;5.426;2024-02-14T00:37:55;101307.22;;;7.83;95.23
55763;BME280;42162;51.958;5.426;2024-02-14T00:40:22;101301.19;;;7.84;95.16
55763;BME280;42162;51.958;5.426;2024-02-14T00:42:50;101296.88;;;7.86;94.93
55763;BME280;42162;51.958;5.426;2024-02-14T00:45:18;101291.69;;;7.87;95.20
55763;BME280;42162;51.958;5.426;2024-02-14T00:47:46;101286.50;;;7.87;95.16
55763;BME280;42162;51.958;5.426;2024-02-14T00:50:13;101296.81;;;7.89;95.59
55763;BME280;42162;51.958;5.426;2024-02-14T00:52:41;101295.09;;;7.91;95.36
55763;BME280;42162;51.958;5.426;2024-02-14T00:55:09;101289.06;;;7.94;95.58
55763;BME280;42162;51.958;5.426;2024-02-14T00:57:36;101291.63;;;7.95;95.50
55763;BME280;42162;51.958;5.426;2024-02-14T01:00:04;101289.91;;;7.97;95.58
55763;BME280;42162;51.958;5.426;2024-02-14T01:02:35;101283.00;;;7.99;95.67
55763;BME280;42162;51.958;5.426;2024-02-14T01:05:03;101282.97;;;8.01;95.75
55763;BME280;42162;51.958;5.426;2024-02-14T01:07:32;101284.66;;;8.03;95.44
55763;BME280;42162;51.958;5.426;2024-02-14T01:09:59;101282.06;;;8.07;95.78
55763;BME280;42162;51.958;5.426;2024-02-14T01:12:26;101282.91;;;8.10;95.54
55763;BME280;42162;51.958;5.426;2024-02-14T01:14:53;101290.66;;;8.13;95.59
55763;BME280;42162;51.958;5.426;2024-02-14T01:17:21;101284.59;;;8.14;95.55
55763;BME280;42162;51.958;5.426;2024-02-14T01:19:48;101283.72;;;8.17;95.50
55763;BME280;42162;51.958;5.426;2024-02-14T01:22:16;101283.69;;;8.18;95.55
55763;BME280;42162;51.958;5.426;2024-02-14T01:25:02;101280.25;;;8.19;95.68
55763;BME280;42162;51.958;5.426;2024-02-14T01:27:30;101281.13;;;8.20;95.70
55763;BME280;42162;51.958;5.426;2024-02-14T01:29:58;101283.66;;;8.23;95.69
55763;BME280;42162;51.958;5.426;2024-02-14T01:32:26;101275.88;;;8.26;95.88
55763;BME280;42162;51.958;5.426;2024-02-14T01:34:57;101299.16;;;8.29;95.75
55763;BME280;42162;51.958;5.426;2024-02-14T01:37:24;101288.78;;;8.32;95.80
55763;BME280;42162;51.958;5.426;2024-02-14T01:39:51;101284.47;;;8.33;95.81
55763;BME280;42162;51.958;5.426;2024-02-14T01:42:18;101287.03;;;8.36;96.09
55763;BME280;42162;51.958;5.426;2024-02-14T01:44:46;101287.03;;;8.36;96.07
55763;BME280;42162;51.958;5.426;2024-02-14T01:47:15;101280.97;;;8.37;96.18
55763;BME280;42162;51.958;5.426;2024-02-14T01:49:45;101284.41;;;8.39;96.24
55763;BME280;42162;51.958;5.426;2024-02-14T01:52:12;101293.03;;;8.40;96.12
55763;BME280;42162;51.958;5.426;2024-02-14T01:54:40;101292.19;;;8.39;96.22
55763;BME280;42162;51.958;5.426;2024-02-14T01:57:08;101283.53;;;8.40;96.41
55763;BME280;42162;51.958;5.426;2024-02-14T01:59:37;101280.06;;;8.41;96.39
55763;BME280;42162;51.958;5.426;2024-02-14T02:02:05;101298.19;;;8.41;96.60
55763;BME280;42162;51.958;5.426;2024-02-14T02:04:35;101293.88;;;8.42;96.75
55763;BME280;42162;51.958;5.426;2024-02-14T02:07:04;101288.72;;;8.42;96.71
55763;BME280;42162;51.958;5.426;2024-02-14T02:09:31;101287.84;;;8.43;97.05
55763;BME280;42162;51.958;5.426;2024-02-14T02:12:00;101279.19;;;8.42;97.00
55763;BME280;42162;51.958;5.426;2024-02-14T02:14:48;101292.13;;;8.42;97.24
55763;BME280;42162;51.958;5.426;2024-02-14T02:17:35;101286.97;;;8.42;97.22
55763;BME280;42162;51.958;5.426;2024-02-14T02:20:23;101292.13;;;8.42;97.32
55763;BME280;42162;51.958;5.426;2024-02-14T02:22:50;101286.13;;;8.42;97.69
55763;BME280;42162;51.958;5.426;2024-02-14T02:25:38;101286.09;;;8.40;97.40
55763;BME280;42162;51.958;5.426;2024-02-14T02:28:26;101287.84;;;8.43;97.65
55763;BME280;42162;51.958;5.426;2024-02-14T02:30:54;101287.81;;;8.44;97.62
55763;BME280;42162;51.958;5.426;2024-02-14T02:33:22;101295.59;;;8.44;97.73
55763;BME280;42162;51.958;5.426;2024-02-14T02:35:51;101292.97;;;8.46;97.89
55763;BME280;42162;51.958;5.426;2024-02-14T02:38:38;101293.00;;;8.44;97.74
55763;BME280;42162;51.958;5.426;2024-02-14T02:41:25;101286.09;;;8.45;97.90
55763;BME280;42162;51.958;5.426;2024-02-14T02:44:12;101299.88;;;8.45;97.85
55763;BME280;42162;51.958;5.426;2024-02-14T02:47:02;101294.72;;;8.45;98.30
55763;BME280;42162;51.958;5.426;2024-02-14T02:49:49;101292.09;;;8.47;98.31
55763;BME280;42162;51.958;5.426;2024-02-14T02:52:36;101291.25;;;8.46;98.15
55763;BME280;42162;51.958;5.426;2024-02-14T02:55:23;101299.88;;;8.47;98.20
55763;BME280;42162;51.958;5.426;2024-02-14T02:57:58;101298.19;;;8.47;98.13
55763;BME280;42162;51.958;5.426;2024-02-14T03:00:26;101294.72;;;8.48;98.43
55763;BME280;42162;51.958;5.426;2024-02-14T03:03:10;101295.56;;;8.46;98.64
55763;BME280;42162;51.958;5.426;2024-02-14T03:05:55;101303.31;;;8.46;98.60
55763;BME280;42162;51.958;5.426;2024-02-14T03:08:43;101300.78;;;8.47;98.56
55763;BME280;42162;51.958;5.426;2024-02-14T03:11:30;101300.78;;;8.47;98.89
55763;BME280;42162;51.958;5.426;2024-02-14T03:14:18;101300.78;;;8.47;98.99
55763;BME280;42162;51.958;5.426;2024-02-14T03:17:07;101298.16;;;8.51;98.82
55763;BME280;42162;51.958;5.426;2024-02-14T03:19:35;101299.88;;;8.53;99.03
55763;BME280;42162;51.958;5.426;2024-02-14T03:22:06;101303.28;;;8.57;98.85
55763;BME280;42162;51.958;5.426;2024-02-14T03:24:36;101303.25;;;8.60;99.13
55763;BME280;42162;51.958;5.426;2024-02-14T03:27:06;101301.50;;;8.63;99.09
55763;BME280;42162;51.958;5.426;2024-02-14T03:29:34;101304.03;;;8.68;99.18
55763;BME280;42162;51.958;5.426;2024-02-14T03:32:02;101301.44;;;8.70;98.94
55763;BME280;42162;51.958;5.426;2024-02-14T03:34:32;101317.78;;;8.75;99.15
55763;BME280;42162;51.958;5.426;2024-02-14T03:37:03;101310.00;;;8.78;98.96
55763;BME280;42162;51.958;5.426;2024-02-14T03:39:31;101317.72;;;8.81;98.86
55763;BME280;42162;51.958;5.426;2024-02-14T03:41:58;101316.84;;;8.84;99.07
55763;BME280;42162;51.958;5.426;2024-02-14T03:44:29;101314.22;;;8.87;98.90
55763;BME280;42162;51.958;5.426;2024-02-14T03:46:57;101325.44;;;8.89;98.83
55763;BME280;42162;51.958;5.426;2024-02-14T03:49:25;101320.25;;;8.90;98.84
55763;BME280;42162;51.958;5.426;2024-02-14T03:51:52;101315.88;;;8.92;98.57
55763;BME280;42162;51.958;5.426;2024-02-14T03:54:24;101317.63;;;8.92;98.96
55763;BME280;42162;51.958;5.426;2024-02-14T03:56:51;101316.72;;;8.94;99.05
55763;BME280;42162;51.958;5.426;2024-02-14T03:59:19;101323.63;;;8.95;99.23
55763;BME280;42162;51.958;5.426;2024-02-14T04:01:52;101321.91;;;8.98;99.01
55763;BME280;42162;51.958;5.426;2024-02-14T04:04:20;101329.66;;;8.99;98.91
55763;BME280;42162;51.958;5.426;2024-02-14T04:06:50;101331.34;;;9.00;98.79
55763;BME280;42162;51.958;5.426;2024-02-14T04:09:18;101327.03;;;9.02;99.01
55763;BME280;42162;51.958;5.426;2024-02-14T04:11:45;101335.69;;;9.03;98.70
55763;BME280;42162;51.958;5.426;2024-02-14T04:14:12;101341.69;;;9.06;98.84
55763;BME280;42162;51.958;5.426;2024-02-14T04:16:39;101349.47;;;9.06;98.77
55763;BME280;42162;51.958;5.426;2024-02-14T04:19:07;101351.16;;;9.06;98.92
55763;BME280;42162;51.958;5.426;2024-02-14T04:21:36;101343.34;;;9.10;99.17
55763;BME280;42162;51.958;5.426;2024-02-14T04:24:04;101352.84;;;9.11;98.78
55763;BME280;42162;51.958;5.426;2024-02-14T04:26:32;101356.31;;;9.12;98.76
55763;BME280;42162;51.958;5.426;2024-02-14T04:28:59;101355.44;;;9.13;98.91
55763;BME280;42162;51.958;5.426;2024-02-14T04:31:26;101357.16;;;9.14;99.04
55763;BME280;42162;51.958;5.426;2024-02-14T04:34:02;101358.88;;;9.14;98.93
55763;BME280;42162;51.958;5.426;2024-02-14T04:36:30;101365.78;;;9.15;99.32
55763;BME280;42162;51.958;5.426;2024-02-14T04:38:57;101354.53;;;9.16;99.11
55763;BME280;42162;51.958;5.426;2024-02-14T04:41:24;101364.03;;;9.17;99.08
55763;BME280;42162;51.958;5.426;2024-02-14T04:43:51;101363.16;;;9.18;99.25
55763;BME280;42162;51.958;5.426;2024-02-14T04:46:18;101369.19;;;9.18;98.98
55763;BME280;42162;51.958;5.426;2024-02-14T04:48:46;101364.00;;;9.20;99.24
55763;BME280;42162;51.958;5.426;2024-02-14T04:51:13;101363.09;;;9.21;99.26
55763;BME280;42162;51.958;5.426;2024-02-14T04:53:40;101368.28;;;9.22;99.26
55763;BME280;42162;51.958;5.426;2024-02-14T04:56:08;101374.31;;;9.23;99.12
55763;BME280;42162;51.958;5.426;2024-02-14T04:58:35;101370.88;;;9.21;99.14
55763;BME280;42162;51.958;5.426;2024-02-14T05:01:03;101366.59;;;9.20;99.35
55763;BME280;42162;51.958;5.426;2024-02-14T05:03:30;101371.78;;;9.20;99.08
55763;BME280;42162;51.958;5.426;2024-02-14T05:05:59;101376.09;;;9.19;99.57
55763;BME280;42162;51.958;5.426;2024-02-14T05:08:30;101379.56;;;9.20;99.59
55763;BME280;42162;51.958;5.426;2024-02-14T05:10:57;101377.81;;;9.20;99.52
55763;BME280;42162;51.958;5.426;2024-02-14T05:13:24;101382.13;;;9.21;99.60
55763;BME280;42162;51.958;5.426;2024-02-14T05:15:51;101379.53;;;9.21;99.70
55763;BME280;42162;51.958;5.426;2024-02-14T05:18:18;101383.00;;;9.20;99.48
55763;BME280;42162;51.958;5.426;2024-02-14T05:20:46;101387.31;;;9.21;99.67
55763;BME280;42162;51.958;5.426;2024-02-14T05:23:13;101386.44;;;9.21;99.84
55763;BME280;42162;51.958;5.426;2024-02-14T05:25:40;101385.59;;;9.20;100.00
55763;BME280;42162;51.958;5.426;2024-02-14T05:28:08;101388.16;;;9.22;99.86
55763;BME280;42162;51.958;5.426;2024-02-14T05:30:43;101389.91;;;9.21;99.96
55763;BME280;42162;51.958;5.426;2024-02-14T05:33:20;101392.47;;;9.23;99.85
55763;BME280;42162;51.958;5.426;2024-02-14T05:35:49;101392.47;;;9.24;99.80
55763;BME280;42162;51.958;5.426;2024-02-14T05:38:17;101394.19;;;9.25;99.84
55763;BME280;42162;51.958;5.426;2024-02-14T05:40:46;101395.03;;;9.26;99.83
55763;BME280;42162;51.958;5.426;2024-02-14T05:43:15;101392.44;;;9.26;99.90
55763;BME280;42162;51.958;5.426;2024-02-14T05:45:42;101383.81;;;9.25;99.98
55763;BME280;42162;51.958;5.426;2024-02-14T05:48:12;101390.69;;;9.26;100.00
55763;BME280;42162;51.958;5.426;2024-02-14T05:50:40;101396.75;;;9.27;100.00
55763;BME280;42162;51.958;5.426;2024-02-14T05:53:07;101397.63;;;9.26;100.00
55763;BME280;42162;51.958;5.426;2024-02-14T05:55:34;101397.59;;;9.27;100.00
55763;BME280;42162;51.958;5.426;2024-02-14T05:58:01;101399.31;;;9.29;100.00
55763;BME280;42162;51.958;5.426;2024-02-14T06:00:29;101401.91;;;9.29;100.00
55763;BME280;42162;51.958;5.426;2024-02-14T06:02:56;101399.34;;;9.27;100.00
55763;BME280;42162;51.958;5.426;2024-02-14T06:05:24;101392.44;;;9.26;100.00
55763;BME280;42162;51.958;5.426;2024-02-14T06:07:51;101405.44;;;9.24;100.00
55763;BME280;42162;51.958;5.426;2024-02-14T06:10:19;101400.22;;;9.26;100.00
55763;BME280;42162;51.958;5.426;2024-02-14T06:12:46;101402.81;;;9.26;100.00
55763;BME280;42162;51.958;5.426;2024-02-14T06:15:14;101406.28;;;9.25;100.00
55763;BME280;42162;51.958;5.426;2024-02-14T06:17:42;101419.25;;;9.25;100.00
55763;BME280;42162;51.958;5.426;2024-02-14T06:20:09;101408.88;;;9.25;100.00
55763;BME280;42162;51.958;5.426;2024-02-14T06:22:37;101409.72;;;9.27;100.00
55763;BME280;42162;51.958;5.426;2024-02-14T06:25:16;101420.97;;;9.26;100.00
55763;BME280;42162;51.958;5.426;2024-02-14T06:27:54;101421.81;;;9.26;100.00
55763;BME280;42162;51.958;5.426;2024-02-14T06:30:21;101427.00;;;9.26;100.00
55763;BME280;42162;51.958;5.426;2024-02-14T06:32:49;101434.78;;;9.26;100.00
55763;BME280;42162;51.958;5.426;2024-02-14T06:35:16;101433.91;;;9.27;100.00
55763;BME280;42162;51.958;5.426;2024-02-14T06:37:49;101435.66;;;9.27;100.00
55763;BME280;42162;51.958;5.426;2024-02-14T06:40:28;101450.31;;;9.26;100.00
55763;BME280;42162;51.958;5.426;2024-02-14T06:42:57;101446.88;;;9.27;100.00
55763;BME280;42162;51.958;5.426;2024-02-14T06:45:26;101439.97;;;9.28;100.00
55763;BME280;42162;51.958;5.426;2024-02-14T06:48:04;101452.91;;;9.31;100.00
55763;BME280;42162;51.958;5.426;2024-02-14T06:50:31;101451.16;;;9.32;100.00
55763;BME280;42162;51.958;5.426;2024-02-14T06:52:58;101452.00;;;9.34;100.00
55763;BME280;42162;51.958;5.426;2024-02-14T06:55:27;101450.25;;;9.36;100.00
55763;BME280;42162;51.958;5.426;2024-02-14T06:57:55;101445.06;;;9.37;100.00
55763;BME280;42162;51.958;5.426;2024-02-14T07:00:23;101439.00;;;9.38;100.00
55763;BME280;42162;51.958;5.426;2024-02-14T07:02:51;101458.84;;;9.41;100.00
55763;BME280;42162;51.958;5.426;2024-02-14T07:05:18;101445.91;;;9.39;100.00
55763;BME280;42162;51.958;5.426;2024-02-14T07:07:45;101453.66;;;9.41;100.00
55763;BME280;42162;51.958;5.426;2024-02-14T07:10:12;101455.38;;;9.42;100.00
55763;BME280;42162;51.958;5.426;2024-02-14T07:12:39;101463.16;;;9.42;100.00
55763;BME280;42162;51.958;5.426;2024-02-14T07:15:07;101463.13;;;9.45;100.00
55763;BME280;42162;51.958;5.426;2024-02-14T07:17:36;101454.47;;;9.46;100.00
55763;BME280;42162;51.958;5.426;2024-02-14T07:20:04;101466.56;;;9.47;100.00
55763;BME280;42162;51.958;5.426;2024-02-14T07:22:31;101463.06;;;9.51;100.00
55763;BME280;42162;51.958;5.426;2024-02-14T07:24:59;101465.66;;;9.53;100.00
55763;BME280;42162;51.958;5.426;2024-02-14T07:27:26;101475.16;;;9.54;100.00
55763;BME280;42162;51.958;5.426;2024-02-14T07:29:54;101468.19;;;9.56;100.00
55763;BME280;42162;51.958;5.426;2024-02-14T07:32:21;101475.97;;;9.57;100.00
55763;BME280;42162;51.958;5.426;2024-02-14T07:34:49;101459.53;;;9.59;100.00
55763;BME280;42162;51.958;5.426;2024-02-14T07:37:17;101480.28;;;9.60;100.00
55763;BME280;42162;51.958;5.426;2024-02-14T07:39:49;101469.03;;;9.60;100.00
55763;BME280;42162;51.958;5.426;2024-02-14T07:42:17;101475.06;;;9.60;100.00
55763;BME280;42162;51.958;5.426;2024-02-14T07:44:47;101473.31;;;9.61;100.00
55763;BME280;42162;51.958;5.426;2024-02-14T07:47:15;101472.47;;;9.62;100.00
55763;BME280;42162;51.958;5.426;2024-02-14T07:49:42;101478.50;;;9.64;100.00
55763;BME280;42162;51.958;5.426;2024-02-14T07:52:10;101477.59;;;9.66;100.00
55763;BME280;42162;51.958;5.426;2024-02-14T07:54:37;101477.59;;;9.68;100.00
55763;BME280;42162;51.958;5.426;2024-02-14T07:57:04;101481.91;;;9.69;100.00
55763;BME280;42162;51.958;5.426;2024-02-14T07:59:31;101490.53;;;9.69;100.00
55763;BME280;42162;51.958;5.426;2024-02-14T08:01:58;101485.34;;;9.71;100.00
55763;BME280;42162;51.958;5.426;2024-02-14T08:04:25;101493.13;;;9.71;100.00
55763;BME280;42162;51.958;5.426;2024-02-14T08:06:53;101496.56;;;9.71;100.00
55763;BME280;42162;51.958;5.426;2024-02-14T08:09:20;101493.13;;;9.72;100.00
55763;BME280;42162;51.958;5.426;2024-02-14T08:11:47;101495.69;;;9.74;100.00
55763;BME280;42162;51.958;5.426;2024-02-14T08:14:14;101490.50;;;9.74;100.00
55763;BME280;42162;51.958;5.426;2024-02-14T08:16:42;101502.59;;;9.75;100.00
55763;BME280;42162;51.958;5.426;2024-02-14T08:19:09;101502.59;;;9.77;100.00
55763;BME280;42162;51.958;5.426;2024-02-14T08:21:36;101500.84;;;9.77;100.00
55763;BME280;42162;51.958;5.426;2024-02-14T08:24:04;101508.63;;;9.77;100.00
55763;BME280;42162;51.958;5.426;2024-02-14T08:26:32;101506.91;;;9.78;100.00
55763;BME280;42162;51.958;5.426;2024-02-14T08:28:59;101512.09;;;9.78;100.00
55763;BME280;42162;51.958;5.426;2024-02-14T08:31:27;101510.38;;;9.77;100.00
55763;BME280;42162;51.958;5.426;2024-02-14T08:33:54;101507.75;;;9.78;100.00
55763;BME280;42162;51.958;5.426;2024-02-14T08:36:22;101506.88;;;9.79;100.00
55763;BME280;42162;51.958;5.426;2024-02-14T08:38:49;101505.09;;;9.83;100.00
55763;BME280;42162;51.958;5.426;2024-02-14T08:41:16;101508.59;;;9.83;100.00
55763;BME280;42162;51.958;5.426;2024-02-14T08:43:45;101511.13;;;9.86;100.00
55763;BME280;42162;51.958;5.426;2024-02-14T08:46:14;101512.00;;;9.87;100.00
55763;BME280;42162;51.958;5.426;2024-02-14T08:48:44;101509.38;;;9.88;100.00
55763;BME280;42162;51.958;5.426;2024-02-14T08:51:16;101519.72;;;9.90;100.00
55763;BME280;42162;51.958;5.426;2024-02-14T08:53:44;101513.72;;;9.88;100.00
55763;BME280;42162;51.958;5.426;2024-02-14T08:56:13;101521.47;;;9.90;100.00
55763;BME280;42162;51.958;5.426;2024-02-14T08:58:41;101514.56;;;9.88;100.00
55763;BME280;42162;51.958;5.426;2024-02-14T09:01:08;101514.56;;;9.88;100.00
55763;BME280;42162;51.958;5.426;2024-02-14T09:03:43;101511.13;;;9.88;100.00
55763;BME280;42162;51.958;5.426;2024-02-14T09:06:17;101510.25;;;9.89;100.00
55763;BME280;42162;51.958;5.426;2024-02-14T09:08:45;101519.72;;;9.90;100.00
55763;BME280;42162;51.958;5.426;2024-02-14T09:11:13;101514.53;;;9.90;100.00
55763;BME280;42162;51.958;5.426;2024-02-14T09:13:40;101514.53;;;9.92;100.00
55763;BME280;42162;51.958;5.426;2024-02-14T09:16:08;101521.44;;;9.93;100.00
55763;BME280;42162;51.958;5.426;2024-02-14T09:18:37;101525.78;;;9.94;100.00
55763;BME280;42162;51.958;5.426;2024-02-14T09:21:04;101532.66;;;9.93;100.00
55763;BME280;42162;51.958;5.426;2024-02-14T09:23:33;101528.34;;;9.94;100.00
55763;BME280;42162;51.958;5.426;2024-02-14T09:26:01;101536.97;;;9.96;100.00
55763;BME280;42162;51.958;5.426;2024-02-14T09:28:29;101539.56;;;9.97;100.00
55763;BME280;42162;51.958;5.426;2024-02-14T09:31:01;101532.63;;;9.98;100.00
55763;BME280;42162;51.958;5.426;2024-02-14T09:33:28;101543.84;;;10.00;100.00
55763;BME280;42162;51.958;5.426;2024-02-14T09:35:56;101535.19;;;10.01;100.00
55763;BME280;42162;51.958;5.426;2024-02-14T09:38:23;101529.13;;;10.02;100.00
55763;BME280;42162;51.958;5.426;2024-02-14T09:40:53;101536.91;;;10.02;100.00
55763;BME280;42162;51.958;5.426;2024-02-14T09:43:38;101532.56;;;10.04;100.00
55763;BME280;42162;51.958;5.426;2024-02-14T09:46:08;101536.84;;;10.08;100.00
55763;BME280;42162;51.958;5.426;2024-02-14T09:48:36;101530.75;;;10.11;100.00
55763;BME280;42162;51.958;5.426;2024-02-14T09:51:05;101542.84;;;10.13;100.00
55763;BME280;42162;51.958;5.426;2024-02-14T09:53:34;101535.03;;;10.16;100.00
55763;BME280;42162;51.958;5.426;2024-02-14T09:56:02;101535.84;;;10.18;100.00
55763;BME280;42162;51.958;5.426;2024-02-14T09:58:31;101534.97;;;10.19;100.00
55763;BME280;42162;51.958;5.426;2024-02-14T10:00:58;101545.34;;;10.21;100.00
55763;BME280;42162;51.958;5.426;2024-02-14T10:03:26;101542.75;;;10.19;100.00
55763;BME280;42162;51.958;5.426;2024-02-14T10:05:54;101550.56;;;10.21;100.00
55763;BME280;42162;51.958;5.426;2024-02-14T10:08:22;101550.53;;;10.23;100.00
55763;BME280;42162;51.958;5.426;2024-02-14T10:10:49;101549.63;;;10.25;100.00
55763;BME280;42162;51.958;5.426;2024-02-14T10:13:19;101540.06;;;10.29;100.00
55763;BME280;42162;51.958;5.426;2024-02-14T10:15:47;101542.63;;;10.33;100.00
55763;BME280;42162;51.958;5.426;2024-02-14T10:18:14;101547.78;;;10.38;100.00
55763;BME280;42162;51.958;5.426;2024-02-14T10:20:55;101547.75;;;10.40;100.00
55763;BME280;42162;51.958;5.426;2024-02-14T10:23:23;101553.78;;;10.42;100.00
55763;BME280;42162;51.958;5.426;2024-02-14T10:25:54;101553.78;;;10.42;100.00
55763;BME280;42162;51.958;5.426;2024-02-14T10:28:23;101558.09;;;10.44;100.00
55763;BME280;42162;51.958;5.426;2024-02-14T10:31:02;101564.09;;;10.48;100.00
55763;BME280;42162;51.958;5.426;2024-02-14T10:33:32;101562.34;;;10.50;100.00
55763;BME280;42162;51.958;5.426;2024-02-14T10:36:00;101564.91;;;10.53;100.00
55763;BME280;42162;51.958;5.426;2024-02-14T10:38:31;101564.00;;;10.57;100.00
55763;BME280;42162;51.958;5.426;2024-02-14T10:41:03;101578.69;;;10.60;100.00
55763;BME280;42162;51.958;5.426;2024-02-14T10:43:33;101574.31;;;10.62;100.00
55763;BME280;42162;51.958;5.426;2024-02-14T10:46:06;101567.38;;;10.62;100.00
55763;BME280;42162;51.958;5.426;2024-02-14T10:48:37;101554.38;;;10.64;100.00
55763;BME280;42162;51.958;5.426;2024-02-14T10:51:08;101564.75;;;10.65;100.00
55763;BME280;42162;51.958;5.426;2024-02-14T10:53:39;101564.75;;;10.65;100.00
55763;BME280;42162;51.958;5.426;2024-02-14T10:56:09;101568.19;;;10.66;100.00
55763;BME280;42162;51.958;5.426;2024-02-14T10:58:36;101560.41;;;10.66;100.00
55763;BME280;42162;51.958;5.426;2024-02-14T11:01:04;101567.31;;;10.67;100.00
55763;BME280;42162;51.958;5.426;2024-02-14T11:03:34;101564.72;;;10.69;100.00
55763;BME280;42162;51.958;5.426;2024-02-14T11:06:02;101553.44;;;10.68;100.00
55763;BME280;42162;51.958;5.426;2024-02-14T11:08:32;101562.97;;;10.69;100.00
55763;BME280;42162;51.958;5.426;2024-02-14T11:11:00;101560.38;;;10.69;100.00
55763;BME280;42162;51.958;5.426;2024-02-14T11:13:29;101556.88;;;10.70;100.00
55763;BME280;42162;51.958;5.426;2024-02-14T11:16:03;101550.81;;;10.71;100.00
55763;BME280;42162;51.958;5.426;2024-02-14T11:18:31;101549.06;;;10.73;100.00
55763;BME280;42162;51.958;5.426;2024-02-14T11:21:15;101547.31;;;10.75;100.00
55763;BME280;42162;51.958;5.426;2024-02-14T11:23:52;101554.19;;;10.78;100.00
55763;BME280;42162;51.958;5.426;2024-02-14T11:26:20;101550.72;;;10.79;100.00
55763;BME280;42162;51.958;5.426;2024-02-14T11:28:59;101546.34;;;10.81;100.00
55763;BME280;42162;51.958;5.426;2024-02-14T11:31:34;101540.28;;;10.80;100.00
55763;BME280;42162;51.958;5.426;2024-02-14T11:34:05;101541.97;;;10.83;100.00
55763;BME280;42162;51.958;5.426;2024-02-14T11:36:32;101545.44;;;10.84;100.00
55763;BME280;42162;51.958;5.426;2024-02-14T11:39:05;101548.00;;;10.85;100.00
55763;BME280;42162;51.958;5.426;2024-02-14T11:41:33;101548.88;;;10.86;100.00
55763;BME280;42162;51.958;5.426;2024-02-14T11:44:05;101555.78;;;10.88;100.00
55763;BME280;42162;51.958;5.426;2024-02-14T11:46:36;101543.63;;;10.89;100.00
55763;BME280;42162;51.958;5.426;2024-02-14T11:49:04;101549.66;;;10.91;100.00
55763;BME280;42162;51.958;5.426;2024-02-14T11:51:33;101531.47;;;10.91;100.00
55763;BME280;42162;51.958;5.426;2024-02-14T11:54:03;101541.88;;;10.91;100.00
55763;BME280;42162;51.958;5.426;2024-02-14T11:56:38;101544.47;;;10.91;100.00
55763;BME280;42162;51.958;5.426;2024-02-14T11:59:07;101532.34;;;10.90;100.00
55763;BME280;42162;51.958;5.426;2024-02-14T12:01:38;101536.66;;;10.91;100.00
55763;BME280;42162;51.958;5.426;2024-02-14T12:04:07;101539.28;;;10.91;100.00
55763;BME280;42162;51.958;5.426;2024-02-14T12:06:36;101534.94;;;10.91;100.00
55763;BME280;42162;51.958;5.426;2024-02-14T12:09:05;101521.06;;;10.92;100.00
55763;BME280;42162;51.958;5.426;2024-02-14T12:11:40;101523.63;;;10.94;100.00
55763;BME280;42162;51.958;5.426;2024-02-14T12:14:09;101535.72;;;10.98;100.00
55763;BME280;42162;51.958;5.426;2024-02-14T12:16:37;101523.56;;;10.99;100.00
55763;BME280;42162;51.958;5.426;2024-02-14T12:19:09;101521.81;;;10.99;100.00
55763;BME280;42162;51.958;5.426;2024-02-14T12:21:39;101530.47;;;11.00;100.00
55763;BME280;42162;51.958;5.426;2024-02-14T12:24:09;101527.91;;;10.98;100.00
55763;BME280;42162;51.958;5.426;2024-02-14T12:26:38;101526.13;;;11.00;100.00
55763;BME280;42162;51.958;5.426;2024-02-14T12:29:06;101533.09;;;11.00;100.00
55763;BME280;42162;51.958;5.426;2024-02-14T12:31:37;101528.72;;;11.00;100.00
55763;BME280;42162;51.958;5.426;2024-02-14T12:34:04;101532.19;;;11.01;100.00
55763;BME280;42162;51.958;5.426;2024-02-14T12:36:33;101525.25;;;11.01;100.00
55763;BME280;42162;51.958;5.426;2024-02-14T12:39:01;101520.06;;;11.01;100.00
55763;BME280;42162;51.958;5.426;2024-02-14T12:41:30;101523.53;;;11.00;100.00
55763;BME280;42162;51.958;5.426;2024-02-14T12:43:58;101524.44;;;10.98;100.00
55763;BME280;42162;51.958;5.426;2024-02-14T12:46:27;101532.22;;;10.99;100.00
55763;BME280;42162;51.958;5.426;2024-02-14T12:48:54;101528.75;;;10.99;100.00
55763;BME280;42162;51.958;5.426;2024-02-14T12:51:22;101529.59;;;11.01;100.00
55763;BME280;42162;51.958;5.426;2024-02-14T12:53:49;101511.41;;;10.99;100.00
55763;BME280;42162;51.958;5.426;2024-02-14T12:56:16;101516.59;;;10.99;100.00
55763;BME280;42162;51.958;5.426;2024-02-14T12:58:44;101514.84;;;11.01;100.00
55763;BME280;42162;51.958;5.426;2024-02-14T13:01:13;101516.56;;;11.02;100.00
55763;BME280;42162;51.958;5.426;2024-02-14T13:03:41;101513.13;;;11.02;100.00
55763;BME280;42162;51.958;5.426;2024-02-14T13:06:09;101510.53;;;11.02;100.00